sensor_id;sensor_type;location;lat;lon;timestamp;temperature;humidity
67817;DHT22;54614;47.576;7.524;2023-03-11T00:00:36;23.40;48.20
67817;DHT22;54614;47.576;7.524;2023-03-11T00:03:05;23.40;47.90
67817;DHT22;54614;47.576;7.524;2023-03-11T00:05:37;23.40;48.10
67817;DHT22;54614;47.576;7.524;2023-03-11T00:08:06;23.40;48.10
67817;DHT22;54614;47.576;7.524;2023-03-11T00:10:36;23.30;48.10
67817;DHT22;54614;47.576;7.524;2023-03-11T00:13:05;23.40;48.20
67817;DHT22;54614;47.576;7.524;2023-03-11T00:15:34;23.40;48.30
67817;DHT22;54614;47.576;7.524;2023-03-11T00:18:01;23.40;48.40
67817;DHT22;54614;47.576;7.524;2023-03-11T00:20:29;23.40;48.40
67817;DHT22;54614;47.576;7.524;2023-03-11T00:22:57;23.40;48.40
67817;DHT22;54614;47.576;7.524;2023-03-11T00:25:25;23.30;48.10
67817;DHT22;54614;47.576;7.524;2023-03-11T00:27:52;23.40;48.10
67817;DHT22;54614;47.576;7.524;2023-03-11T00:30:19;23.30;48.10
67817;DHT22;54614;47.576;7.524;2023-03-11T00:32:56;23.30;48.20
67817;DHT22;54614;47.576;7.524;2023-03-11T00:35:28;23.40;48.30
67817;DHT22;54614;47.576;7.524;2023-03-11T00:37:58;23.40;48.40
67817;DHT22;54614;47.576;7.524;2023-03-11T00:40:28;23.40;48.40
67817;DHT22;54614;47.576;7.524;2023-03-11T00:42:55;23.40;48.50
67817;DHT22;54614;47.576;7.524;2023-03-11T00:45:22;23.40;48.50
67817;DHT22;54614;47.576;7.524;2023-03-11T00:47:49;23.40;48.50
67817;DHT22;54614;47.576;7.524;2023-03-11T00:50:28;23.30;48.60
67817;DHT22;54614;47.576;7.524;2023-03-11T00:52:56;23.30;48.50
67817;DHT22;54614;47.576;7.524;2023-03-11T00:55:25;23.30;48.20
67817;DHT22;54614;47.576;7.524;2023-03-11T00:58:03;23.30;48.30
67817;DHT22;54614;47.576;7.524;2023-03-11T01:00:30;23.30;48.30
67817;DHT22;54614;47.576;7.524;2023-03-11T01:02:58;23.30;48.40
67817;DHT22;54614;47.576;7.524;2023-03-11T01:05:29;23.40;48.50
67817;DHT22;54614;47.576;7.524;2023-03-11T01:07:57;23.40;48.50
67817;DHT22;54614;47.576;7.524;2023-03-11T01:10:23;23.40;48.60
67817;DHT22;54614;47.576;7.524;2023-03-11T01:12:50;23.40;48.60
67817;DHT22;54614;47.576;7.524;2023-03-11T01:15:21;23.30;48.60
67817;DHT22;54614;47.576;7.524;2023-03-11T01:17:53;23.30;48.60
67817;DHT22;54614;47.576;7.524;2023-03-11T01:20:19;23.30;48.40
67817;DHT22;54614;47.576;7.524;2023-03-11T01:22:45;23.30;48.50
67817;DHT22;54614;47.576;7.524;2023-03-11T01:25:13;23.30;48.40
67817;DHT22;54614;47.576;7.524;2023-03-11T01:27:40;23.30;48.50
67817;DHT22;54614;47.576;7.524;2023-03-11T01:30:07;23.30;48.50
67817;DHT22;54614;47.576;7.524;2023-03-11T01:32:37;23.30;48.60
67817;DHT22;54614;47.576;7.524;2023-03-11T01:35:03;23.30;48.70
67817;DHT22;54614;47.576;7.524;2023-03-11T01:37:29;23.30;48.60
67817;DHT22;54614;47.576;7.524;2023-03-11T01:39:55;23.30;48.70
67817;DHT22;54614;47.576;7.524;2023-03-11T01:42:21;23.30;48.80
67817;DHT22;54614;47.576;7.524;2023-03-11T01:44:46;23.30;48.70
67817;DHT22;54614;47.576;7.524;2023-03-11T01:49:38;23.20;48.50
67817;DHT22;54614;47.576;7.524;2023-03-11T01:52:07;23.20;48.50
67817;DHT22;54614;47.576;7.524;2023-03-11T01:54:36;23.20;48.40
67817;DHT22;54614;47.576;7.524;2023-03-11T01:57:06;23.20;48.40
67817;DHT22;54614;47.576;7.524;2023-03-11T01:59:39;23.20;48.40
67817;DHT22;54614;47.576;7.524;2023-03-11T02:02:22;23.20;48.40
67817;DHT22;54614;47.576;7.524;2023-03-11T02:04:53;23.20;48.40
67817;DHT22;54614;47.576;7.524;2023-03-11T02:07:19;23.20;48.30
67817;DHT22;54614;47.576;7.524;2023-03-11T02:09:45;23.20;48.30
67817;DHT22;54614;47.576;7.524;2023-03-11T02:12:13;23.20;48.30
67817;DHT22;54614;47.576;7.524;2023-03-11T02:14:42;23.20;48.90
67817;DHT22;54614;47.576;7.524;2023-03-11T02:17:11;23.20;48.20
67817;DHT22;54614;47.576;7.524;2023-03-11T02:22:30;23.20;48.20
67817;DHT22;54614;47.576;7.524;2023-03-11T02:28:02;23.20;48.20
67817;DHT22;54614;47.576;7.524;2023-03-11T02:30:32;23.20;48.20
67817;DHT22;54614;47.576;7.524;2023-03-11T02:33:00;23.20;48.20
67817;DHT22;54614;47.576;7.524;2023-03-11T02:35:27;23.20;48.20
67817;DHT22;54614;47.576;7.524;2023-03-11T02:37:54;23.20;48.10
67817;DHT22;54614;47.576;7.524;2023-03-11T02:43:06;23.20;48.30
67817;DHT22;54614;47.576;7.524;2023-03-11T02:45:35;23.20;48.20
67817;DHT22;54614;47.576;7.524;2023-03-11T02:48:06;23.20;48.20
67817;DHT22;54614;47.576;7.524;2023-03-11T02:50:34;23.20;48.00
67817;DHT22;54614;47.576;7.524;2023-03-11T02:53:02;23.20;48.10
67817;DHT22;54614;47.576;7.524;2023-03-11T02:55:30;23.20;48.20
67817;DHT22;54614;47.576;7.524;2023-03-11T02:57:56;23.10;48.20
67817;DHT22;54614;47.576;7.524;2023-03-11T03:00:22;23.20;48.20
67817;DHT22;54614;47.576;7.524;2023-03-11T03:02:49;23.20;48.10
67817;DHT22;54614;47.576;7.524;2023-03-11T03:05:20;23.20;48.20
67817;DHT22;54614;47.576;7.524;2023-03-11T03:07:47;23.10;48.10
67817;DHT22;54614;47.576;7.524;2023-03-11T03:10:14;23.10;48.10
67817;DHT22;54614;47.576;7.524;2023-03-11T03:12:41;23.20;48.20
67817;DHT22;54614;47.576;7.524;2023-03-11T03:15:09;23.10;48.10
67817;DHT22;54614;47.576;7.524;2023-03-11T03:17:35;23.10;48.10
67817;DHT22;54614;47.576;7.524;2023-03-11T03:20:02;23.10;48.20
67817;DHT22;54614;47.576;7.524;2023-03-11T03:22:30;23.10;48.10
67817;DHT22;54614;47.576;7.524;2023-03-11T03:24:56;23.10;48.10
67817;DHT22;54614;47.576;7.524;2023-03-11T03:27:22;23.10;48.10
67817;DHT22;54614;47.576;7.524;2023-03-11T03:29:47;23.10;48.50
67817;DHT22;54614;47.576;7.524;2023-03-11T03:32:13;23.10;48.20
67817;DHT22;54614;47.576;7.524;2023-03-11T03:34:39;23.10;48.00
67817;DHT22;54614;47.576;7.524;2023-03-11T03:37:05;23.10;48.10
67817;DHT22;54614;47.576;7.524;2023-03-11T03:39:31;23.10;48.00
67817;DHT22;54614;47.576;7.524;2023-03-11T03:41:58;23.10;48.00
67817;DHT22;54614;47.576;7.524;2023-03-11T03:44:24;23.10;48.50
67817;DHT22;54614;47.576;7.524;2023-03-11T03:46:50;23.30;48.10
67817;DHT22;54614;47.576;7.524;2023-03-11T03:49:16;23.10;48.00
67817;DHT22;54614;47.576;7.524;2023-03-11T03:51:42;23.10;48.10
67817;DHT22;54614;47.576;7.524;2023-03-11T03:54:08;23.10;48.00
67817;DHT22;54614;47.576;7.524;2023-03-11T03:56:33;23.10;48.10
67817;DHT22;54614;47.576;7.524;2023-03-11T03:58:59;23.10;48.50
67817;DHT22;54614;47.576;7.524;2023-03-11T04:01:25;23.10;48.00
67817;DHT22;54614;47.576;7.524;2023-03-11T04:03:51;23.00;48.00
67817;DHT22;54614;47.576;7.524;2023-03-11T04:06:25;23.00;48.10
67817;DHT22;54614;47.576;7.524;2023-03-11T04:08:53;23.00;48.00
67817;DHT22;54614;47.576;7.524;2023-03-11T04:11:19;23.10;48.00
67817;DHT22;54614;47.576;7.524;2023-03-11T04:13:45;23.00;48.60
67817;DHT22;54614;47.576;7.524;2023-03-11T04:16:17;23.00;48.00
67817;DHT22;54614;47.576;7.524;2023-03-11T04:18:45;23.10;48.00
67817;DHT22;54614;47.576;7.524;2023-03-11T04:21:11;23.00;48.00
67817;DHT22;54614;47.576;7.524;2023-03-11T04:23:37;23.00;47.90
67817;DHT22;54614;47.576;7.524;2023-03-11T04:26:02;23.10;47.90
67817;DHT22;54614;47.576;7.524;2023-03-11T04:28:28;23.00;47.90
67817;DHT22;54614;47.576;7.524;2023-03-11T04:30:54;23.00;48.00
67817;DHT22;54614;47.576;7.524;2023-03-11T04:33:21;23.00;47.90
67817;DHT22;54614;47.576;7.524;2023-03-11T04:35:46;23.00;47.90
67817;DHT22;54614;47.576;7.524;2023-03-11T04:38:12;23.00;47.90
67817;DHT22;54614;47.576;7.524;2023-03-11T04:40:38;23.00;47.80
67817;DHT22;54614;47.576;7.524;2023-03-11T04:43:05;23.00;48.00
67817;DHT22;54614;47.576;7.524;2023-03-11T04:45:31;22.90;47.80
67817;DHT22;54614;47.576;7.524;2023-03-11T04:47:57;23.00;47.90
67817;DHT22;54614;47.576;7.524;2023-03-11T04:50:23;23.00;48.10
67817;DHT22;54614;47.576;7.524;2023-03-11T04:52:49;22.90;47.90
67817;DHT22;54614;47.576;7.524;2023-03-11T04:55:15;22.90;48.00
67817;DHT22;54614;47.576;7.524;2023-03-11T04:57:42;23.00;47.90
67817;DHT22;54614;47.576;7.524;2023-03-11T05:00:10;23.00;47.80
67817;DHT22;54614;47.576;7.524;2023-03-11T05:02:38;22.90;47.80
67817;DHT22;54614;47.576;7.524;2023-03-11T05:05:06;22.90;47.90
67817;DHT22;54614;47.576;7.524;2023-03-11T05:07:33;22.90;47.80
67817;DHT22;54614;47.576;7.524;2023-03-11T05:09:58;22.90;47.90
67817;DHT22;54614;47.576;7.524;2023-03-11T05:12:25;22.90;47.80
67817;DHT22;54614;47.576;7.524;2023-03-11T05:14:51;22.90;47.90
67817;DHT22;54614;47.576;7.524;2023-03-11T05:17:17;22.90;47.90
67817;DHT22;54614;47.576;7.524;2023-03-11T05:19:44;22.90;47.80
67817;DHT22;54614;47.576;7.524;2023-03-11T05:22:10;22.90;47.90
67817;DHT22;54614;47.576;7.524;2023-03-11T05:24:36;22.90;47.80
67817;DHT22;54614;47.576;7.524;2023-03-11T05:27:03;22.90;47.90
67817;DHT22;54614;47.576;7.524;2023-03-11T05:29:30;22.50;47.60
67817;DHT22;54614;47.576;7.524;2023-03-11T05:31:57;22.90;47.90
67817;DHT22;54614;47.576;7.524;2023-03-11T05:34:23;22.90;47.70
67817;DHT22;54614;47.576;7.524;2023-03-11T05:36:49;22.90;47.70
67817;DHT22;54614;47.576;7.524;2023-03-11T05:39:14;22.90;47.70
67817;DHT22;54614;47.576;7.524;2023-03-11T05:41:40;22.90;47.70
67817;DHT22;54614;47.576;7.524;2023-03-11T05:44:06;22.90;47.70
67817;DHT22;54614;47.576;7.524;2023-03-11T05:46:32;22.90;47.70
67817;DHT22;54614;47.576;7.524;2023-03-11T05:48:59;22.90;48.00
67817;DHT22;54614;47.576;7.524;2023-03-11T05:51:25;22.90;47.90
67817;DHT22;54614;47.576;7.524;2023-03-11T05:53:51;22.90;47.80
67817;DHT22;54614;47.576;7.524;2023-03-11T05:56:19;22.90;47.80
67817;DHT22;54614;47.576;7.524;2023-03-11T05:58:47;22.90;47.90
67817;DHT22;54614;47.576;7.524;2023-03-11T06:01:15;22.90;47.90
67817;DHT22;54614;47.576;7.524;2023-03-11T06:03:43;22.80;47.90
67817;DHT22;54614;47.576;7.524;2023-03-11T06:06:10;22.80;47.80
67817;DHT22;54614;47.576;7.524;2023-03-11T06:08:38;22.80;47.80
67817;DHT22;54614;47.576;7.524;2023-03-11T06:11:06;22.90;47.80
67817;DHT22;54614;47.576;7.524;2023-03-11T06:13:35;22.80;47.70
67817;DHT22;54614;47.576;7.524;2023-03-11T06:16:02;22.80;47.80
67817;DHT22;54614;47.576;7.524;2023-03-11T06:18:28;22.80;47.90
67817;DHT22;54614;47.576;7.524;2023-03-11T06:20:57;22.80;47.70
67817;DHT22;54614;47.576;7.524;2023-03-11T06:23:25;22.80;47.70
67817;DHT22;54614;47.576;7.524;2023-03-11T06:26:03;22.80;47.70
67817;DHT22;54614;47.576;7.524;2023-03-11T06:28:30;22.80;47.60
67817;DHT22;54614;47.576;7.524;2023-03-11T06:31:09;22.80;47.60
67817;DHT22;54614;47.576;7.524;2023-03-11T06:33:40;22.80;47.70
67817;DHT22;54614;47.576;7.524;2023-03-11T06:36:06;22.80;47.60
67817;DHT22;54614;47.576;7.524;2023-03-11T06:38:33;22.80;47.80
67817;DHT22;54614;47.576;7.524;2023-03-11T06:41:00;22.80;47.80
67817;DHT22;54614;47.576;7.524;2023-03-11T06:43:28;22.80;47.80
67817;DHT22;54614;47.576;7.524;2023-03-11T06:45:56;22.80;47.90
67817;DHT22;54614;47.576;7.524;2023-03-11T06:48:23;22.80;47.70
67817;DHT22;54614;47.576;7.524;2023-03-11T06:50:53;22.80;47.80
67817;DHT22;54614;47.576;7.524;2023-03-11T06:53:20;22.80;47.70
67817;DHT22;54614;47.576;7.524;2023-03-11T06:55:55;22.80;47.90
67817;DHT22;54614;47.576;7.524;2023-03-11T06:58:26;22.80;47.60
67817;DHT22;54614;47.576;7.524;2023-03-11T07:00:52;22.80;47.60
67817;DHT22;54614;47.576;7.524;2023-03-11T07:03:18;22.80;47.80
67817;DHT22;54614;47.576;7.524;2023-03-11T07:05:44;22.80;47.60
67817;DHT22;54614;47.576;7.524;2023-03-11T07:08:10;22.80;47.60
67817;DHT22;54614;47.576;7.524;2023-03-11T07:10:36;22.80;47.50
67817;DHT22;54614;47.576;7.524;2023-03-11T07:13:02;22.90;47.60
67817;DHT22;54614;47.576;7.524;2023-03-11T07:15:28;22.90;47.30
67817;DHT22;54614;47.576;7.524;2023-03-11T07:17:53;23.00;48.30
67817;DHT22;54614;47.576;7.524;2023-03-11T07:20:19;23.00;47.80
67817;DHT22;54614;47.576;7.524;2023-03-11T07:22:45;23.00;47.50
67817;DHT22;54614;47.576;7.524;2023-03-11T07:25:10;23.10;47.70
67817;DHT22;54614;47.576;7.524;2023-03-11T07:27:36;23.10;47.70
67817;DHT22;54614;47.576;7.524;2023-03-11T07:30:03;23.10;47.90
67817;DHT22;54614;47.576;7.524;2023-03-11T07:32:29;23.00;47.90
67817;DHT22;54614;47.576;7.524;2023-03-11T07:34:54;23.10;48.40
67817;DHT22;54614;47.576;7.524;2023-03-11T07:37:20;23.10;48.10
67817;DHT22;54614;47.576;7.524;2023-03-11T07:39:46;23.20;48.20
67817;DHT22;54614;47.576;7.524;2023-03-11T07:42:12;23.20;48.20
67817;DHT22;54614;47.576;7.524;2023-03-11T07:44:37;23.20;48.30
67817;DHT22;54614;47.576;7.524;2023-03-11T07:47:04;23.20;48.20
67817;DHT22;54614;47.576;7.524;2023-03-11T07:49:30;23.20;48.30
67817;DHT22;54614;47.576;7.524;2023-03-11T07:51:57;23.30;48.30
67817;DHT22;54614;47.576;7.524;2023-03-11T07:54:23;23.30;48.30
67817;DHT22;54614;47.576;7.524;2023-03-11T07:56:49;23.30;48.20
67817;DHT22;54614;47.576;7.524;2023-03-11T07:59:14;23.30;48.30
67817;DHT22;54614;47.576;7.524;2023-03-11T08:01:40;23.30;48.40
67817;DHT22;54614;47.576;7.524;2023-03-11T08:04:12;23.40;48.70
67817;DHT22;54614;47.576;7.524;2023-03-11T08:06:43;23.40;48.20
67817;DHT22;54614;47.576;7.524;2023-03-11T08:09:11;23.40;48.20
67817;DHT22;54614;47.576;7.524;2023-03-11T08:11:37;23.40;48.20
67817;DHT22;54614;47.576;7.524;2023-03-11T08:14:03;23.40;48.20
67817;DHT22;54614;47.576;7.524;2023-03-11T08:16:30;23.40;48.10
67817;DHT22;54614;47.576;7.524;2023-03-11T08:18:56;23.40;48.40
67817;DHT22;54614;47.576;7.524;2023-03-11T08:21:25;23.50;48.20
67817;DHT22;54614;47.576;7.524;2023-03-11T08:23:56;23.40;48.10
67817;DHT22;54614;47.576;7.524;2023-03-11T08:26:23;23.40;47.90
67817;DHT22;54614;47.576;7.524;2023-03-11T08:28:49;23.40;49.20
67817;DHT22;54614;47.576;7.524;2023-03-11T08:31:19;23.40;48.10
67817;DHT22;54614;47.576;7.524;2023-03-11T08:33:50;23.40;48.00
67817;DHT22;54614;47.576;7.524;2023-03-11T08:36:19;23.50;47.70
67817;DHT22;54614;47.576;7.524;2023-03-11T08:38:46;23.50;47.50
67817;DHT22;54614;47.576;7.524;2023-03-11T08:41:12;23.50;47.50
67817;DHT22;54614;47.576;7.524;2023-03-11T08:43:39;23.50;47.50
67817;DHT22;54614;47.576;7.524;2023-03-11T08:46:06;23.50;47.80
67817;DHT22;54614;47.576;7.524;2023-03-11T08:48:33;23.50;47.60
67817;DHT22;54614;47.576;7.524;2023-03-11T08:51:01;23.50;47.30
67817;DHT22;54614;47.576;7.524;2023-03-11T08:53:27;23.50;47.20
67817;DHT22;54614;47.576;7.524;2023-03-11T08:55:53;23.50;47.10
67817;DHT22;54614;47.576;7.524;2023-03-11T08:58:19;23.60;47.20
67817;DHT22;54614;47.576;7.524;2023-03-11T09:00:45;23.60;47.30
67817;DHT22;54614;47.576;7.524;2023-03-11T09:03:12;23.60;47.30
67817;DHT22;54614;47.576;7.524;2023-03-11T09:05:38;23.60;47.30
67817;DHT22;54614;47.576;7.524;2023-03-11T09:08:04;23.60;47.30
67817;DHT22;54614;47.576;7.524;2023-03-11T09:10:30;23.60;47.30
67817;DHT22;54614;47.576;7.524;2023-03-11T09:12:56;23.60;47.30
67817;DHT22;54614;47.576;7.524;2023-03-11T09:15:21;23.60;47.00
67817;DHT22;54614;47.576;7.524;2023-03-11T09:17:47;23.60;47.00
67817;DHT22;54614;47.576;7.524;2023-03-11T09:20:13;23.60;47.00
67817;DHT22;54614;47.576;7.524;2023-03-11T09:22:40;23.60;47.00
67817;DHT22;54614;47.576;7.524;2023-03-11T09:25:06;23.60;47.10
67817;DHT22;54614;47.576;7.524;2023-03-11T09:27:34;23.60;47.10
67817;DHT22;54614;47.576;7.524;2023-03-11T09:29:59;23.60;47.20
67817;DHT22;54614;47.576;7.524;2023-03-11T09:32:25;23.60;47.20
67817;DHT22;54614;47.576;7.524;2023-03-11T09:34:51;23.60;47.30
67817;DHT22;54614;47.576;7.524;2023-03-11T09:37:17;23.60;47.30
67817;DHT22;54614;47.576;7.524;2023-03-11T09:39:42;23.60;47.50
67817;DHT22;54614;47.576;7.524;2023-03-11T09:42:37;23.60;47.30
67817;DHT22;54614;47.576;7.524;2023-03-11T09:45:35;23.70;47.40
67817;DHT22;54614;47.576;7.524;2023-03-11T09:48:27;23.70;47.40
67817;DHT22;54614;47.576;7.524;2023-03-11T09:51:08;23.70;47.50
67817;DHT22;54614;47.576;7.524;2023-03-11T09:53:43;23.70;47.30
67817;DHT22;54614;47.576;7.524;2023-03-11T09:56:19;23.70;47.30
67817;DHT22;54614;47.576;7.524;2023-03-11T10:01:34;23.70;47.30
67817;DHT22;54614;47.576;7.524;2023-03-11T10:07:01;23.70;47.30
67817;DHT22;54614;47.576;7.524;2023-03-11T10:09:45;23.70;47.20
67817;DHT22;54614;47.576;7.524;2023-03-11T10:12:18;23.70;47.20
67817;DHT22;54614;47.576;7.524;2023-03-11T10:18:49;23.70;47.20
67817;DHT22;54614;47.576;7.524;2023-03-11T10:21:48;23.70;47.40
67817;DHT22;54614;47.576;7.524;2023-03-11T10:24:53;23.70;47.80
67817;DHT22;54614;47.576;7.524;2023-03-11T10:27:53;23.80;47.60
67817;DHT22;54614;47.576;7.524;2023-03-11T10:35:45;23.80;47.70
67817;DHT22;54614;47.576;7.524;2023-03-11T10:38:32;23.80;47.70
67817;DHT22;54614;47.576;7.524;2023-03-11T10:41:05;23.80;47.60
67817;DHT22;54614;47.576;7.524;2023-03-11T10:43:45;23.80;47.60
67817;DHT22;54614;47.576;7.524;2023-03-11T10:46:23;23.80;48.20
67817;DHT22;54614;47.576;7.524;2023-03-11T10:48:51;23.80;47.40
67817;DHT22;54614;47.576;7.524;2023-03-11T10:51:22;23.80;47.80
67817;DHT22;54614;47.576;7.524;2023-03-11T10:53:55;23.80;48.40
67817;DHT22;54614;47.576;7.524;2023-03-11T10:56:39;23.80;48.40
67817;DHT22;54614;47.576;7.524;2023-03-11T10:59:32;23.80;48.20
67817;DHT22;54614;47.576;7.524;2023-03-11T11:02:37;23.80;48.20
67817;DHT22;54614;47.576;7.524;2023-03-11T11:07:44;23.80;48.20
67817;DHT22;54614;47.576;7.524;2023-03-11T11:15:27;23.90;48.40
67817;DHT22;54614;47.576;7.524;2023-03-11T11:18:01;24.00;48.60
67817;DHT22;54614;47.576;7.524;2023-03-11T11:20:30;24.00;48.50
67817;DHT22;54614;47.576;7.524;2023-03-11T11:22:59;24.00;48.70
67817;DHT22;54614;47.576;7.524;2023-03-11T11:25:30;24.00;48.80
67817;DHT22;54614;47.576;7.524;2023-03-11T11:30:59;24.00;49.40
67817;DHT22;54614;47.576;7.524;2023-03-11T11:33:41;24.00;48.40
67817;DHT22;54614;47.576;7.524;2023-03-11T11:36:15;24.00;48.60
67817;DHT22;54614;47.576;7.524;2023-03-11T11:38:42;23.90;48.70
67817;DHT22;54614;47.576;7.524;2023-03-11T11:41:14;24.00;48.60
67817;DHT22;54614;47.576;7.524;2023-03-11T11:43:47;24.00;48.20
67817;DHT22;54614;47.576;7.524;2023-03-11T11:46:20;24.00;47.90
67817;DHT22;54614;47.576;7.524;2023-03-11T11:49:40;24.00;48.30
67817;DHT22;54614;47.576;7.524;2023-03-11T11:52:02;24.00;48.30
67817;DHT22;54614;47.576;7.524;2023-03-11T11:55:00;24.10;48.30
67817;DHT22;54614;47.576;7.524;2023-03-11T11:57:29;24.10;48.20
67817;DHT22;54614;47.576;7.524;2023-03-11T11:59:56;24.10;48.00
67817;DHT22;54614;47.576;7.524;2023-03-11T12:07:56;23.80;48.50
67817;DHT22;54614;47.576;7.524;2023-03-11T12:10:57;23.70;48.80
67817;DHT22;54614;47.576;7.524;2023-03-11T12:29:02;23.50;48.60
67817;DHT22;54614;47.576;7.524;2023-03-11T12:31:37;23.60;48.30
67817;DHT22;54614;47.576;7.524;2023-03-11T12:34:08;23.80;48.00
67817;DHT22;54614;47.576;7.524;2023-03-11T12:36:39;23.90;48.00
67817;DHT22;54614;47.576;7.524;2023-03-11T12:39:20;24.00;47.60
67817;DHT22;54614;47.576;7.524;2023-03-11T12:44:50;24.00;46.90
67817;DHT22;54614;47.576;7.524;2023-03-11T12:47:21;24.10;47.20
67817;DHT22;54614;47.576;7.524;2023-03-11T12:49:54;24.10;47.20
67817;DHT22;54614;47.576;7.524;2023-03-11T12:52:51;24.10;47.00
67817;DHT22;54614;47.576;7.524;2023-03-11T12:55:28;24.10;46.60
67817;DHT22;54614;47.576;7.524;2023-03-11T12:58:31;24.10;46.60
67817;DHT22;54614;47.576;7.524;2023-03-11T13:01:28;24.10;46.50
67817;DHT22;54614;47.576;7.524;2023-03-11T13:07:23;24.00;47.20
67817;DHT22;54614;47.576;7.524;2023-03-11T13:12:46;24.00;47.30
67817;DHT22;54614;47.576;7.524;2023-03-11T13:15:35;24.00;47.20
67817;DHT22;54614;47.576;7.524;2023-03-11T13:34:38;24.00;48.40
67817;DHT22;54614;47.576;7.524;2023-03-11T13:37:36;24.10;47.90
67817;DHT22;54614;47.576;7.524;2023-03-11T13:42:48;23.80;48.70
67817;DHT22;54614;47.576;7.524;2023-03-11T13:45:32;23.80;48.40
67817;DHT22;54614;47.576;7.524;2023-03-11T13:48:19;23.80;48.80
67817;DHT22;54614;47.576;7.524;2023-03-11T13:51:00;23.80;49.00
67817;DHT22;54614;47.576;7.524;2023-03-11T13:56:32;23.70;49.00
67817;DHT22;54614;47.576;7.524;2023-03-11T13:59:26;23.70;48.50
67817;DHT22;54614;47.576;7.524;2023-03-11T14:01:56;23.80;48.20
67817;DHT22;54614;47.576;7.524;2023-03-11T14:04:29;23.80;48.10
67817;DHT22;54614;47.576;7.524;2023-03-11T14:06:57;23.80;47.90
67817;DHT22;54614;47.576;7.524;2023-03-11T14:09:26;23.90;47.80
67817;DHT22;54614;47.576;7.524;2023-03-11T14:11:53;23.80;47.70
67817;DHT22;54614;47.576;7.524;2023-03-11T14:17:17;23.90;47.50
67817;DHT22;54614;47.576;7.524;2023-03-11T14:20:02;23.90;47.50
67817;DHT22;54614;47.576;7.524;2023-03-11T14:22:29;23.90;47.40
67817;DHT22;54614;47.576;7.524;2023-03-11T14:24:57;23.90;47.50
67817;DHT22;54614;47.576;7.524;2023-03-11T14:27:26;23.80;47.30
67817;DHT22;54614;47.576;7.524;2023-03-11T14:29:52;23.90;47.40
67817;DHT22;54614;47.576;7.524;2023-03-11T14:34:54;23.90;47.40
67817;DHT22;54614;47.576;7.524;2023-03-11T14:37:34;23.80;47.40
67817;DHT22;54614;47.576;7.524;2023-03-11T14:40:02;23.80;47.60
67817;DHT22;54614;47.576;7.524;2023-03-11T14:42:46;23.90;47.50
67817;DHT22;54614;47.576;7.524;2023-03-11T14:45:16;23.90;47.60
67817;DHT22;54614;47.576;7.524;2023-03-11T14:50:34;23.90;47.50
67817;DHT22;54614;47.576;7.524;2023-03-11T14:53:28;23.90;47.70
67817;DHT22;54614;47.576;7.524;2023-03-11T14:56:07;23.90;48.50
67817;DHT22;54614;47.576;7.524;2023-03-11T15:01:41;23.80;49.30
67817;DHT22;54614;47.576;7.524;2023-03-11T15:04:47;23.80;49.60
67817;DHT22;54614;47.576;7.524;2023-03-11T15:07:08;23.80;49.50
67817;DHT22;54614;47.576;7.524;2023-03-11T15:09:38;23.80;49.20
67817;DHT22;54614;47.576;7.524;2023-03-11T15:12:06;23.90;49.10
67817;DHT22;54614;47.576;7.524;2023-03-11T15:14:52;23.80;49.20
67817;DHT22;54614;47.576;7.524;2023-03-11T15:17:24;23.80;49.00
67817;DHT22;54614;47.576;7.524;2023-03-11T15:19:53;23.70;48.80
67817;DHT22;54614;47.576;7.524;2023-03-11T15:24:51;23.70;48.70
67817;DHT22;54614;47.576;7.524;2023-03-11T15:27:27;23.70;48.60
67817;DHT22;54614;47.576;7.524;2023-03-11T15:29:56;23.70;48.40
67817;DHT22;54614;47.576;7.524;2023-03-11T15:37:37;23.80;48.40
67817;DHT22;54614;47.576;7.524;2023-03-11T15:40:25;23.80;48.30
67817;DHT22;54614;47.576;7.524;2023-03-11T15:43:25;23.80;48.20
67817;DHT22;54614;47.576;7.524;2023-03-11T15:45:59;23.80;48.40
67817;DHT22;54614;47.576;7.524;2023-03-11T15:48:27;23.80;48.40
67817;DHT22;54614;47.576;7.524;2023-03-11T15:50:56;23.80;48.30
67817;DHT22;54614;47.576;7.524;2023-03-11T15:53:24;23.70;48.30
67817;DHT22;54614;47.576;7.524;2023-03-11T15:55:53;23.70;48.40
67817;DHT22;54614;47.576;7.524;2023-03-11T15:58:21;23.70;48.40
67817;DHT22;54614;47.576;7.524;2023-03-11T16:00:49;23.80;48.40
67817;DHT22;54614;47.576;7.524;2023-03-11T16:03:17;23.70;48.30
67817;DHT22;54614;47.576;7.524;2023-03-11T16:05:44;23.70;48.20
67817;DHT22;54614;47.576;7.524;2023-03-11T16:08:11;23.70;48.30
67817;DHT22;54614;47.576;7.524;2023-03-11T16:10:38;23.70;48.00
67817;DHT22;54614;47.576;7.524;2023-03-11T16:13:04;23.70;48.00
67817;DHT22;54614;47.576;7.524;2023-03-11T16:15:34;23.70;47.90
67817;DHT22;54614;47.576;7.524;2023-03-11T16:18:04;23.70;47.90
67817;DHT22;54614;47.576;7.524;2023-03-11T16:20:37;23.70;47.70
67817;DHT22;54614;47.576;7.524;2023-03-11T16:23:17;23.80;47.70
67817;DHT22;54614;47.576;7.524;2023-03-11T16:25:47;23.80;47.60
67817;DHT22;54614;47.576;7.524;2023-03-11T16:28:14;23.80;47.60
67817;DHT22;54614;47.576;7.524;2023-03-11T16:30:41;23.80;47.80
67817;DHT22;54614;47.576;7.524;2023-03-11T16:33:07;23.90;48.00
67817;DHT22;54614;47.576;7.524;2023-03-11T16:35:33;23.90;47.90
67817;DHT22;54614;47.576;7.524;2023-03-11T16:38:00;23.90;47.80
67817;DHT22;54614;47.576;7.524;2023-03-11T16:40:27;23.80;48.00
67817;DHT22;54614;47.576;7.524;2023-03-11T16:42:58;23.70;48.00
67817;DHT22;54614;47.576;7.524;2023-03-11T16:45:27;23.70;48.30
67817;DHT22;54614;47.576;7.524;2023-03-11T16:47:53;23.60;48.60
67817;DHT22;54614;47.576;7.524;2023-03-11T16:50:19;23.50;48.70
67817;DHT22;54614;47.576;7.524;2023-03-11T16:52:45;23.50;48.90
67817;DHT22;54614;47.576;7.524;2023-03-11T16:55:12;23.50;49.00
67817;DHT22;54614;47.576;7.524;2023-03-11T16:57:38;23.40;49.00
67817;DHT22;54614;47.576;7.524;2023-03-11T17:00:05;23.40;49.10
67817;DHT22;54614;47.576;7.524;2023-03-11T17:02:35;23.40;49.20
67817;DHT22;54614;47.576;7.524;2023-03-11T17:05:02;23.40;49.30
67817;DHT22;54614;47.576;7.524;2023-03-11T17:07:30;23.40;49.30
67817;DHT22;54614;47.576;7.524;2023-03-11T17:09:57;23.30;49.40
67817;DHT22;54614;47.576;7.524;2023-03-11T17:12:25;23.30;49.90
67817;DHT22;54614;47.576;7.524;2023-03-11T17:14:52;23.10;50.10
67817;DHT22;54614;47.576;7.524;2023-03-11T17:17:19;23.10;50.80
67817;DHT22;54614;47.576;7.524;2023-03-11T17:19:45;23.00;51.10
67817;DHT22;54614;47.576;7.524;2023-03-11T17:22:11;23.00;51.10
67817;DHT22;54614;47.576;7.524;2023-03-11T17:24:38;23.00;51.20
67817;DHT22;54614;47.576;7.524;2023-03-11T17:27:04;23.10;51.60
67817;DHT22;54614;47.576;7.524;2023-03-11T17:29:31;23.10;51.60
67817;DHT22;54614;47.576;7.524;2023-03-11T17:31:58;23.20;51.60
67817;DHT22;54614;47.576;7.524;2023-03-11T17:34:25;23.20;51.60
67817;DHT22;54614;47.576;7.524;2023-03-11T17:36:51;23.30;51.40